Time;durP1;ratioP1;P1;durP2;ratioP2;P2;SDS_P1;SDS_P2;PMS_P1;PMS_P2;Temp;Humidity;BMP_temperature;BMP_pressure;BME280_temperature;BME280_humidity;BME280_pressure;Samples;Min_cycle;Max_cycle;Signal;HPM_P1;HPM_P2
2023/08/25 00:02:09;;;;;;;;;;;17.30;71.50;;;;;;5110027;28;19999;-84
2023/08/25 00:04:35;;;;;;;;;;;17.30;71.60;;;;;;5107685;28;19920;-81
2023/08/25 00:07:01;;;;;;;;;;;17.30;71.60;;;;;;5102586;28;19976;-83
2023/08/25 00:09:26;;;;;;;;;;;17.20;71.60;;;;;;5085738;28;19912;-81
2023/08/25 00:11:52;;;;;;;;;;;17.20;71.60;;;;;;5086430;28;19995;-80
2023/08/25 00:14:18;;;;;;;;;;;17.20;71.60;;;;;;5097929;28;19943;-82
2023/08/25 00:16:43;;;;;;;;;;;17.20;71.80;;;;;;5097503;28;19916;-83
2023/08/25 00:19:09;;;;;;;;;;;17.20;71.80;;;;;;5098705;28;19919;-83
2023/08/25 00:21:34;;;;;;;;;;;17.20;71.80;;;;;;5100506;28;19916;-81
2023/08/25 00:24:00;;;;;;;;;;;17.20;71.80;;;;;;5099723;28;19912;-82
2023/08/25 00:26:25;;;;;;;;;;;17.20;71.80;;;;;;5082921;28;20014;-83
2023/08/25 00:28:51;;;;;;;;;;;17.20;71.80;;;;;;5108871;28;19912;-82
2023/08/25 00:31:17;;;;;;;;;;;17.20;71.80;;;;;;5055274;28;19916;-83
2023/08/25 00:33:49;;;;;;;;;;;17.20;71.70;;;;;;5073522;28;19918;-82
2023/08/25 00:36:14;;;;;;;;;;;17.20;71.70;;;;;;5090043;28;19915;-82
2023/08/25 00:38:40;;;;;;;;;;;17.20;71.80;;;;;;5089405;28;20361;-81
2023/08/25 00:41:06;;;;;;;;;;;17.20;71.80;;;;;;5090437;28;20006;-82
2023/08/25 00:43:33;;;;;;;;;;;17.20;71.80;;;;;;5071649;28;19919;-82
2023/08/25 00:45:59;;;;;;;;;;;17.20;71.80;;;;;;5072892;28;19958;-81
2023/08/25 00:48:25;;;;;;;;;;;17.20;71.80;;;;;;5095085;28;19919;-83
2023/08/25 00:50:51;;;;;;;;;;;17.20;71.80;;;;;;5102671;28;19912;-82
2023/08/25 00:53:17;;;;;;;;;;;17.20;71.80;;;;;;5100399;28;19918;-83
2023/08/25 00:55:43;;;;;;;;;;;17.20;71.80;;;;;;5109148;28;19909;-84
2023/08/25 00:58:09;;;;;;;;;;;17.20;71.80;;;;;;5109138;28;19916;-83
2023/08/25 01:00:35;;;;;;;;;;;17.20;71.70;;;;;;5088111;28;19968;-84
2023/08/25 01:03:00;;;;;;;;;;;17.20;71.80;;;;;;5097215;28;19940;-82
2023/08/25 01:05:26;;;;;;;;;;;17.20;71.80;;;;;;5100443;28;19917;-86
2023/08/25 01:07:52;;;;;;;;;;;17.10;71.70;;;;;;5101415;28;20022;-83
2023/08/25 01:10:24;;;;;;;;;;;17.10;71.70;;;;;;5082839;28;19936;-84
2023/08/25 01:13:04;;;;;;;;;;;17.10;71.70;;;;;;5099456;28;19934;-84
2023/08/25 01:15:31;;;;;;;;;;;17.20;71.90;;;;;;5086628;28;19974;-82
2023/08/25 01:18:17;;;;;;;;;;;17.20;71.90;;;;;;5087391;28;19939;-82
2023/08/25 01:20:45;;;;;;;;;;;17.20;71.80;;;;;;5112514;28;19942;-82
2023/08/25 01:23:14;;;;;;;;;;;17.20;72.20;;;;;;5094852;28;19927;-83
2023/08/25 01:25:40;;;;;;;;;;;17.20;71.70;;;;;;5111574;28;20122;-83
2023/08/25 01:28:06;;;;;;;;;;;17.20;71.70;;;;;;5112700;28;19978;-84
2023/08/25 01:30:34;;;;;;;;;;;17.20;71.70;;;;;;5115340;28;19914;-83
2023/08/25 01:33:00;;;;;;;;;;;17.10;71.70;;;;;;5097093;28;19902;-82
2023/08/25 01:35:34;;;;;;;;;;;17.10;71.70;;;;;;5109846;28;19912;-82
2023/08/25 01:38:04;;;;;;;;;;;17.10;71.80;;;;;;5109125;28;19912;-83
2023/08/25 01:40:35;;;;;;;;;;;17.10;71.80;;;;;;5083644;28;19915;-81
2023/08/25 01:43:02;;;;;;;;;;;17.10;71.80;;;;;;5107634;28;19952;-82
2023/08/25 01:45:28;;;;;;;;;;;17.10;72.30;;;;;;5096050;28;19934;-82
2023/08/25 01:47:54;;;;;;;;;;;17.10;71.90;;;;;;5117776;28;19912;-82
2023/08/25 01:50:21;;;;;;;;;;;17.10;71.80;;;;;;5100358;28;19931;-82
2023/08/25 01:52:47;;;;;;;;;;;17.00;71.80;;;;;;5115447;28;19923;-84
2023/08/25 01:55:12;;;;;;;;;;;17.00;71.80;;;;;;5116023;28;19968;-83
2023/08/25 01:57:38;;;;;;;;;;;17.00;71.80;;;;;;5097309;28;19912;-82
2023/08/25 02:00:04;;;;;;;;;;;17.00;71.80;;;;;;5116713;28;19942;-80
2023/08/25 02:02:30;;;;;;;;;;;17.00;71.80;;;;;;5110005;28;19908;-81
2023/08/25 02:04:55;;;;;;;;;;;16.90;71.80;;;;;;5093553;28;19928;-81
2023/08/25 02:07:23;;;;;;;;;;;17.00;71.90;;;;;;5093858;28;20383;-82
2023/08/25 02:09:48;;;;;;;;;;;16.90;71.80;;;;;;5075588;28;19961;-81
2023/08/25 02:12:14;;;;;;;;;;;16.90;71.90;;;;;;5079375;28;19912;-81
2023/08/25 02:14:39;;;;;;;;;;;16.90;71.80;;;;;;5098606;28;20003;-81
2023/08/25 02:17:05;;;;;;;;;;;16.80;71.80;;;;;;5075335;28;19952;-81
2023/08/25 02:19:31;;;;;;;;;;;16.80;71.90;;;;;;5075817;28;19966;-81
2023/08/25 02:21:57;;;;;;;;;;;16.80;72.00;;;;;;5074053;28;20171;-80
2023/08/25 02:24:22;;;;;;;;;;;16.80;72.00;;;;;;5091480;28;19916;-81
2023/08/25 02:26:49;;;;;;;;;;;16.70;71.80;;;;;;5093647;28;19933;-81
2023/08/25 02:29:14;;;;;;;;;;;16.70;71.80;;;;;;5093738;28;19908;-81
2023/08/25 02:31:40;;;;;;;;;;;16.50;71.70;;;;;;5067122;28;19920;-80
2023/08/25 02:34:05;;;;;;;;;;;16.50;71.80;;;;;;5106527;28;19948;-81
2023/08/25 02:36:31;;;;;;;;;;;16.40;71.80;;;;;;5103772;28;19912;-81
2023/08/25 02:38:56;;;;;;;;;;;16.30;71.80;;;;;;5083921;28;19939;-81
2023/08/25 02:41:22;;;;;;;;;;;16.20;71.90;;;;;;5099872;28;19979;-81
2023/08/25 02:43:48;;;;;;;;;;;16.10;71.80;;;;;;5101989;28;19912;-80
2023/08/25 02:46:13;;;;;;;;;;;16.00;71.90;;;;;;5101398;28;20010;-82
2023/08/25 02:48:39;;;;;;;;;;;16.00;71.90;;;;;;5105802;28;19919;-81
2023/08/25 02:51:04;;;;;;;;;;;15.90;72.00;;;;;;5087729;28;20010;-80
2023/08/25 02:53:30;;;;;;;;;;;15.80;72.00;;;;;;5105741;28;19912;-80
2023/08/25 02:55:55;;;;;;;;;;;15.80;72.10;;;;;;5104241;28;19908;-80
2023/08/25 02:58:21;;;;;;;;;;;15.70;72.00;;;;;;5103634;28;19916;-82
2023/08/25 03:00:47;;;;;;;;;;;15.70;72.00;;;;;;5101884;28;20319;-81
2023/08/25 03:03:12;;;;;;;;;;;15.70;71.90;;;;;;5082465;28;19912;-81
2023/08/25 03:05:38;;;;;;;;;;;15.60;71.90;;;;;;5104860;28;19939;-81
2023/08/25 03:08:04;;;;;;;;;;;15.60;72.40;;;;;;5102030;28;19919;-80
2023/08/25 03:10:30;;;;;;;;;;;15.60;72.00;;;;;;5065015;28;20312;-81
2023/08/25 03:12:55;;;;;;;;;;;15.60;72.10;;;;;;5097777;28;19913;-81
2023/08/25 03:15:21;;;;;;;;;;;15.50;72.00;;;;;;5078391;28;19965;-80
2023/08/25 03:17:46;;;;;;;;;;;15.50;72.00;;;;;;5097681;28;19916;-79
2023/08/25 03:20:12;;;;;;;;;;;15.50;72.00;;;;;;5099220;28;19919;-81
2023/08/25 03:22:38;;;;;;;;;;;15.50;72.00;;;;;;5080123;28;19920;-82
2023/08/25 03:25:04;;;;;;;;;;;15.40;72.00;;;;;;5080150;28;19925;-81
2023/08/25 03:27:32;;;;;;;;;;;15.40;72.10;;;;;;5097399;28;19912;-81
2023/08/25 03:29:58;;;;;;;;;;;15.50;72.20;;;;;;5096699;28;19939;-81
2023/08/25 03:32:23;;;;;;;;;;;15.50;72.10;;;;;;5079741;28;19916;-80
2023/08/25 03:34:49;;;;;;;;;;;15.60;72.20;;;;;;5097785;28;20337;-80
2023/08/25 03:37:15;;;;;;;;;;;15.70;72.10;;;;;;5078140;28;20010;-81
2023/08/25 03:39:40;;;;;;;;;;;15.70;72.00;;;;;;5088835;28;19912;-80
2023/08/25 03:42:06;;;;;;;;;;;15.80;71.90;;;;;;5059590;28;19956;-80
2023/08/25 03:44:32;;;;;;;;;;;15.80;71.90;;;;;;5091469;28;19916;-81
2023/08/25 03:46:57;;;;;;;;;;;15.80;71.90;;;;;;5074427;28;19923;-81
2023/08/25 03:49:27;;;;;;;;;;;15.80;71.90;;;;;;5095019;28;20435;-81
2023/08/25 03:51:53;;;;;;;;;;;15.80;71.90;;;;;;5095561;28;19957;-81
2023/08/25 03:54:19;;;;;;;;;;;15.80;71.90;;;;;;5093098;28;19916;-81
2023/08/25 03:56:44;;;;;;;;;;;15.80;71.90;;;;;;5063518;28;20398;-81
2023/08/25 03:59:11;;;;;;;;;;;15.90;72.00;;;;;;5070362;28;19912;-81
2023/08/25 04:01:50;;;;;;;;;;;15.90;72.00;;;;;;5142041;27;20316;-82
2023/08/25 04:04:16;;;;;;;;;;;15.90;71.90;;;;;;5137078;28;19962;-83
2023/08/25 04:06:42;;;;;;;;;;;15.90;71.90;;;;;;5142600;28;19916;-82
2023/08/25 04:09:07;;;;;;;;;;;15.90;72.00;;;;;;5142639;28;19911;-82
2023/08/25 04:11:33;;;;;;;;;;;16.00;72.00;;;;;;5103992;28;19912;-83
2023/08/25 04:13:58;;;;;;;;;;;15.90;71.90;;;;;;5124002;28;19962;-82
2023/08/25 04:16:24;;;;;;;;;;;15.90;71.90;;;;;;5106394;28;19908;-82
2023/08/25 04:18:50;;;;;;;;;;;15.90;71.90;;;;;;5121547;28;19896;-82
2023/08/25 04:21:15;;;;;;;;;;;15.90;72.00;;;;;;5107994;28;19900;-82
2023/08/25 04:23:41;;;;;;;;;;;15.90;72.00;;;;;;5121569;28;20090;-82
2023/08/25 04:26:07;;;;;;;;;;;16.00;72.00;;;;;;5105309;28;19919;-82
2023/08/25 04:28:32;;;;;;;;;;;16.00;72.00;;;;;;5124114;28;19922;-81
2023/08/25 04:30:58;;;;;;;;;;;16.00;72.10;;;;;;5123976;28;19958;-82
2023/08/25 04:33:24;;;;;;;;;;;16.00;72.00;;;;;;5107536;28;19975;-82
2023/08/25 04:35:49;;;;;;;;;;;16.00;71.90;;;;;;5106028;28;19920;-82
2023/08/25 04:38:15;;;;;;;;;;;16.00;71.90;;;;;;5126117;28;19908;-81
2023/08/25 04:40:40;;;;;;;;;;;16.00;72.10;;;;;;5106584;28;19959;-82
2023/08/25 04:43:06;;;;;;;;;;;16.00;72.10;;;;;;5108486;28;20403;-82
2023/08/25 04:45:32;;;;;;;;;;;16.10;72.10;;;;;;5126438;28;19908;-82
2023/08/25 04:47:57;;;;;;;;;;;16.10;72.10;;;;;;5126905;28;20287;-84
2023/08/25 04:50:24;;;;;;;;;;;16.10;72.00;;;;;;5126640;28;19979;-82
2023/08/25 04:52:50;;;;;;;;;;;16.10;72.00;;;;;;5127415;28;19952;-82
2023/08/25 04:55:16;;;;;;;;;;;16.10;72.00;;;;;;5108039;28;19908;-82
2023/08/25 04:57:42;;;;;;;;;;;16.00;72.00;;;;;;5110136;28;19939;-82
2023/08/25 05:00:08;;;;;;;;;;;16.00;72.00;;;;;;5103366;28;19924;-82
2023/08/25 05:02:34;;;;;;;;;;;16.00;72.00;;;;;;5107586;28;19924;-81
2023/08/25 05:05:02;;;;;;;;;;;16.00;72.00;;;;;;5090134;28;19917;-83
2023/08/25 05:07:27;;;;;;;;;;;16.00;72.00;;;;;;5105289;28;19908;-83
2023/08/25 05:09:53;;;;;;;;;;;16.00;72.00;;;;;;5104640;28;19897;-83
2023/08/25 05:12:19;;;;;;;;;;;16.00;72.10;;;;;;5091418;28;19952;-82
2023/08/25 05:14:45;;;;;;;;;;;16.00;72.10;;;;;;5095475;28;19904;-81
2023/08/25 05:17:10;;;;;;;;;;;16.00;72.10;;;;;;5062009;28;19892;-82
2023/08/25 05:19:36;;;;;;;;;;;16.00;72.00;;;;;;5086175;28;19984;-82
2023/08/25 05:22:02;;;;;;;;;;;16.00;72.10;;;;;;5074306;28;19916;-82
2023/08/25 05:24:28;;;;;;;;;;;16.00;72.10;;;;;;5057356;28;19916;-81
2023/08/25 05:26:54;;;;;;;;;;;16.00;72.10;;;;;;5075729;28;19954;-81
2023/08/25 05:29:21;;;;;;;;;;;16.00;72.10;;;;;;5079035;28;19915;-82
2023/08/25 05:31:47;;;;;;;;;;;16.10;72.20;;;;;;5064515;28;19968;-81
2023/08/25 05:34:12;;;;;;;;;;;16.00;72.10;;;;;;5059868;28;19913;-81
2023/08/25 05:36:38;;;;;;;;;;;16.10;72.20;;;;;;5065355;28;20011;-82
2023/08/25 05:39:04;;;;;;;;;;;16.00;72.10;;;;;;5077899;28;19908;-83
2023/08/25 05:41:30;;;;;;;;;;;16.00;72.00;;;;;;5080220;28;19916;-82
2023/08/25 05:43:55;;;;;;;;;;;16.00;72.10;;;;;;5062187;28;19919;-81
2023/08/25 05:46:21;;;;;;;;;;;16.00;72.10;;;;;;5066018;28;19912;-82
2023/08/25 05:48:46;;;;;;;;;;;16.00;72.10;;;;;;5085233;28;19920;-83
2023/08/25 05:51:12;;;;;;;;;;;16.00;72.20;;;;;;5086085;28;19908;-82
2023/08/25 05:53:38;;;;;;;;;;;16.00;72.20;;;;;;5087743;28;19909;-83
2023/08/25 05:56:03;;;;;;;;;;;16.00;72.20;;;;;;5084304;28;19950;-82
2023/08/25 05:58:29;;;;;;;;;;;16.10;72.20;;;;;;5071285;28;19903;-81
2023/08/25 06:00:56;;;;;;;;;;;16.00;72.20;;;;;;5069030;28;19916;-82
2023/08/25 06:03:22;;;;;;;;;;;16.10;72.20;;;;;;5068107;28;19920;-83
2023/08/25 06:05:51;;;;;;;;;;;16.10;72.70;;;;;;5079153;28;20291;-81
2023/08/25 06:08:17;;;;;;;;;;;16.10;72.20;;;;;;5080876;28;19909;-82
2023/08/25 06:10:42;;;;;;;;;;;16.10;72.20;;;;;;5079249;28;19990;-82
2023/08/25 06:13:08;;;;;;;;;;;16.10;72.20;;;;;;5061596;28;19916;-82
2023/08/25 06:15:33;;;;;;;;;;;16.10;72.20;;;;;;5083119;28;20377;-82
2023/08/25 06:17:59;;;;;;;;;;;16.10;72.10;;;;;;5085218;28;19916;-82
2023/08/25 06:20:25;;;;;;;;;;;16.10;72.10;;;;;;5062533;28;19931;-83
2023/08/25 06:22:51;;;;;;;;;;;16.10;72.10;;;;;;5065264;28;19908;-82
2023/08/25 06:25:16;;;;;;;;;;;16.10;72.10;;;;;;5064472;28;20422;-81
2023/08/25 06:27:42;;;;;;;;;;;16.10;72.10;;;;;;5082569;28;19893;-81
2023/08/25 06:30:08;;;;;;;;;;;16.10;72.20;;;;;;5065244;28;19935;-82
2023/08/25 06:32:33;;;;;;;;;;;16.10;72.20;;;;;;5078159;28;19962;-82
2023/08/25 06:34:59;;;;;;;;;;;16.20;72.30;;;;;;5075672;28;19912;-82
2023/08/25 06:37:25;;;;;;;;;;;16.20;72.10;;;;;;5061109;28;19908;-79
2023/08/25 06:39:50;;;;;;;;;;;16.20;72.10;;;;;;5060373;28;20012;-70
2023/08/25 06:42:16;;;;;;;;;;;16.20;72.10;;;;;;5080679;28;19964;-81
2023/08/25 06:44:42;;;;;;;;;;;16.30;72.20;;;;;;5080806;28;20323;-82
2023/08/25 06:47:07;;;;;;;;;;;16.30;72.20;;;;;;5067608;28;19924;-81
2023/08/25 06:49:33;;;;;;;;;;;16.40;72.20;;;;;;5066233;28;20001;-82
2023/08/25 06:51:59;;;;;;;;;;;16.60;72.20;;;;;;5077701;28;19982;-81
2023/08/25 06:54:25;;;;;;;;;;;16.70;71.90;;;;;;5079786;28;19913;-81
2023/08/25 06:56:51;;;;;;;;;;;16.80;72.00;;;;;;5078234;28;19931;-82
2023/08/25 06:59:16;;;;;;;;;;;16.90;72.00;;;;;;5063735;28;19988;-82
2023/08/25 07:01:42;;;;;;;;;;;17.10;72.10;;;;;;5096367;28;20283;-82
2023/08/25 07:04:07;;;;;;;;;;;17.20;72.00;;;;;;5081596;28;19919;-82
2023/08/25 07:06:33;;;;;;;;;;;17.30;71.80;;;;;;5065185;28;20275;-82
2023/08/25 07:08:59;;;;;;;;;;;17.30;71.70;;;;;;5074355;28;19950;-75
2023/08/25 07:11:26;;;;;;;;;;;17.40;71.70;;;;;;5070047;28;19962;-75
2023/08/25 07:13:52;;;;;;;;;;;17.50;71.80;;;;;;5053782;28;19923;-75
2023/08/25 07:16:17;;;;;;;;;;;17.60;71.70;;;;;;5088220;28;20284;-75
2023/08/25 07:18:43;;;;;;;;;;;17.70;71.70;;;;;;5069966;28;19916;-76
2023/08/25 07:21:10;;;;;;;;;;;17.70;71.70;;;;;;5087969;28;20360;-75
2023/08/25 07:23:36;;;;;;;;;;;17.70;71.70;;;;;;5088186;28;19907;-75
2023/08/25 07:26:01;;;;;;;;;;;17.70;71.80;;;;;;5069885;28;19916;-75
2023/08/25 07:28:27;;;;;;;;;;;17.80;71.80;;;;;;5088146;28;19912;-75
2023/08/25 07:30:52;;;;;;;;;;;17.90;71.90;;;;;;5053325;28;19912;-75
2023/08/25 07:33:18;;;;;;;;;;;18.00;72.00;;;;;;5070250;28;19926;-74
2023/08/25 07:35:44;;;;;;;;;;;18.10;71.90;;;;;;5069326;28;20369;-75
2023/08/25 07:38:10;;;;;;;;;;;18.10;71.90;;;;;;5069762;28;20524;-76
2023/08/25 07:40:37;;;;;;;;;;;18.20;72.00;;;;;;5087649;28;19916;-76
2023/08/25 07:43:02;;;;;;;;;;;18.60;72.20;;;;;;5052770;28;19916;-75
2023/08/25 07:45:29;;;;;;;;;;;19.40;73.10;;;;;;5069855;28;19995;-76
2023/08/25 07:48:01;;;;;;;;;;;20.60;72.80;;;;;;5069481;28;19935;-75
2023/08/25 07:50:30;;;;;;;;;;;21.80;72.30;;;;;;5087568;28;19947;-75
2023/08/25 07:52:57;;;;;;;;;;;22.90;71.50;;;;;;5087611;28;19970;-75
2023/08/25 07:55:22;;;;;;;;;;;23.20;70.30;;;;;;5052659;28;19978;-75
2023/08/25 07:57:48;;;;;;;;;;;23.20;70.10;;;;;;5069362;28;19912;-75
2023/08/25 08:00:15;;;;;;;;;;;22.80;70.10;;;;;;5087103;28;20285;-75
2023/08/25 08:02:42;;;;;;;;;;;22.40;70.40;;;;;;5087506;28;19912;-76
2023/08/25 08:05:08;;;;;;;;;;;22.00;70.80;;;;;;5069278;28;20364;-75
2023/08/25 08:07:34;;;;;;;;;;;21.60;70.90;;;;;;5087302;28;19923;-75
2023/08/25 08:09:59;;;;;;;;;;;21.20;71.20;;;;;;5069310;28;20329;-75
2023/08/25 08:12:25;;;;;;;;;;;20.90;71.50;;;;;;5069049;28;20015;-75
2023/08/25 08:14:51;;;;;;;;;;;20.60;71.70;;;;;;5069072;28;19988;-75
2023/08/25 08:17:16;;;;;;;;;;;20.30;71.80;;;;;;5069128;28;19946;-75
2023/08/25 08:19:42;;;;;;;;;;;20.10;72.00;;;;;;5069098;28;19924;-75
2023/08/25 08:22:07;;;;;;;;;;;20.00;72.30;;;;;;5069260;28;19913;-75
2023/08/25 08:24:34;;;;;;;;;;;20.00;72.40;;;;;;5069399;28;19935;-75
2023/08/25 08:26:59;;;;;;;;;;;20.10;72.60;;;;;;5069951;28;19935;-76
2023/08/25 08:29:25;;;;;;;;;;;20.10;72.40;;;;;;5087283;28;20364;-76
2023/08/25 08:31:51;;;;;;;;;;;20.10;72.30;;;;;;5069076;28;19923;-75
2023/08/25 08:34:17;;;;;;;;;;;20.20;72.40;;;;;;5069568;28;19912;-75
2023/08/25 08:36:42;;;;;;;;;;;20.30;72.30;;;;;;5070227;28;20311;-76
2023/08/25 08:39:08;;;;;;;;;;;20.50;72.20;;;;;;5069958;28;20002;-75
2023/08/25 08:41:33;;;;;;;;;;;20.50;71.80;;;;;;5069939;28;19973;-75
2023/08/25 08:43:59;;;;;;;;;;;20.40;72.40;;;;;;5069030;28;19912;-75
2023/08/25 08:46:27;;;;;;;;;;;20.40;72.10;;;;;;5068922;28;19950;-75
2023/08/25 08:48:53;;;;;;;;;;;20.60;72.50;;;;;;5090621;28;19908;-75
2023/08/25 08:51:19;;;;;;;;;;;21.20;73.20;;;;;;5090652;28;19999;-75
2023/08/25 08:53:45;;;;;;;;;;;21.90;72.90;;;;;;5090547;28;19916;-75
2023/08/25 08:56:12;;;;;;;;;;;22.30;72.10;;;;;;5090998;28;19951;-75
2023/08/25 08:58:37;;;;;;;;;;;22.50;71.80;;;;;;5091249;28;19998;-75
2023/08/25 09:01:03;;;;;;;;;;;22.50;71.60;;;;;;5089793;28;20094;-75
2023/08/25 09:03:31;;;;;;;;;;;22.50;71.60;;;;;;5091630;28;19934;-75
2023/08/25 09:05:59;;;;;;;;;;;22.50;71.50;;;;;;5091497;28;20447;-75
2023/08/25 09:08:25;;;;;;;;;;;22.50;71.60;;;;;;5090364;28;19956;-75
2023/08/25 09:10:50;;;;;;;;;;;23.10;72.90;;;;;;5073108;28;19916;-75
2023/08/25 09:13:16;;;;;;;;;;;24.20;73.30;;;;;;5091005;28;19969;-76
2023/08/25 09:15:43;;;;;;;;;;;25.00;72.40;;;;;;5073327;28;19920;-75
2023/08/25 09:18:08;;;;;;;;;;;25.30;71.90;;;;;;5085090;28;19923;-75
2023/08/25 09:20:35;;;;;;;;;;;25.50;71.90;;;;;;5081478;28;19987;-75
2023/08/25 09:23:01;;;;;;;;;;;25.60;71.60;;;;;;5083206;28;19972;-75
2023/08/25 09:25:26;;;;;;;;;;;25.40;71.30;;;;;;5061366;28;20000;-76
2023/08/25 09:27:59;;;;;;;;;;;25.10;71.40;;;;;;5082058;28;20267;-76
2023/08/25 09:30:37;;;;;;;;;;;24.80;71.30;;;;;;5081512;28;19912;-75
2023/08/25 09:33:04;;;;;;;;;;;24.40;71.70;;;;;;5060421;28;19919;-74
2023/08/25 09:35:29;;;;;;;;;;;24.20;72.20;;;;;;5063244;28;20013;-75
2023/08/25 09:37:55;;;;;;;;;;;24.20;72.60;;;;;;5043890;28;19954;-75
2023/08/25 09:40:21;;;;;;;;;;;24.20;72.60;;;;;;5079902;28;19981;-75
2023/08/25 09:42:46;;;;;;;;;;;24.30;72.50;;;;;;5061156;28;19945;-74
2023/08/25 09:45:12;;;;;;;;;;;24.20;72.20;;;;;;5078578;28;19912;-75
2023/08/25 09:47:38;;;;;;;;;;;23.90;71.90;;;;;;5079771;28;19995;-75
2023/08/25 09:50:04;;;;;;;;;;;23.40;71.90;;;;;;5074314;28;19913;-75
2023/08/25 09:52:32;;;;;;;;;;;23.00;72.10;;;;;;5077868;28;19927;-75
2023/08/25 09:54:57;;;;;;;;;;;22.60;73.00;;;;;;5079014;28;19912;-76
2023/08/25 09:57:23;;;;;;;;;;;22.40;72.80;;;;;;5062049;28;20391;-75
2023/08/25 09:59:49;;;;;;;;;;;22.40;73.20;;;;;;5057077;28;19921;-77
2023/08/25 10:02:15;;;;;;;;;;;22.40;73.10;;;;;;5069686;28;19982;-73
2023/08/25 10:04:41;;;;;;;;;;;22.30;72.80;;;;;;5091146;28;19908;-74
2023/08/25 10:07:07;;;;;;;;;;;22.10;72.70;;;;;;5091015;28;19922;-74
2023/08/25 10:09:33;;;;;;;;;;;22.00;72.80;;;;;;5072843;28;20003;-74
2023/08/25 10:11:58;;;;;;;;;;;22.00;72.90;;;;;;5090649;28;19917;-74
2023/08/25 10:14:26;;;;;;;;;;;22.10;73.00;;;;;;5090171;28;20313;-72
2023/08/25 10:16:52;;;;;;;;;;;22.30;73.20;;;;;;5071647;28;20024;-74
2023/08/25 10:19:23;;;;;;;;;;;22.60;73.20;;;;;;5072188;28;19913;-73
2023/08/25 10:21:49;;;;;;;;;;;22.90;73.30;;;;;;5090078;28;19912;-73
2023/08/25 10:24:18;;;;;;;;;;;23.60;73.70;;;;;;5089910;28;19914;-75
2023/08/25 10:26:44;;;;;;;;;;;24.10;73.40;;;;;;5071664;28;19908;-74
2023/08/25 10:29:10;;;;;;;;;;;24.90;73.90;;;;;;5089602;28;19958;-74
2023/08/25 10:31:36;;;;;;;;;;;26.30;74.60;;;;;;5089436;28;19926;-73
2023/08/25 10:34:02;;;;;;;;;;;27.70;74.40;;;;;;5070542;28;20372;-74
2023/08/25 10:36:28;;;;;;;;;;;28.90;74.20;;;;;;5081849;28;19957;-76
2023/08/25 10:38:59;;;;;;;;;;;30.00;74.10;;;;;;5069718;28;19943;-74
2023/08/25 10:41:27;;;;;;;;;;;31.00;74.10;;;;;;5069775;28;20370;-73
2023/08/25 10:43:54;;;;;;;;;;;31.60;73.50;;;;;;5068509;28;19912;-73
2023/08/25 10:46:20;;;;;;;;;;;31.20;72.30;;;;;;5071137;28;20358;-72
2023/08/25 10:48:46;;;;;;;;;;;30.60;72.70;;;;;;5082574;28;19931;-71
2023/08/25 10:51:19;;;;;;;;;;;30.10;72.60;;;;;;5069108;28;19997;-73
2023/08/25 10:53:52;;;;;;;;;;;29.50;72.50;;;;;;5069329;28;19943;-73
2023/08/25 10:56:21;;;;;;;;;;;28.50;72.20;;;;;;5051122;28;19909;-74
2023/08/25 10:59:06;;;;;;;;;;;28.10;74.00;;;;;;5053590;28;19962;-77
2023/08/25 11:01:37;;;;;;;;;;;28.90;75.50;;;;;;5078116;28;20487;-73
2023/08/25 11:04:04;;;;;;;;;;;30.00;75.50;;;;;;5083699;28;19924;-74
2023/08/25 11:06:43;;;;;;;;;;;30.90;75.00;;;;;;5083171;28;19915;-73
2023/08/25 11:09:10;;;;;;;;;;;31.20;73.80;;;;;;5067479;28;20336;-72
2023/08/25 11:11:37;;;;;;;;;;;30.70;73.20;;;;;;5077725;28;19912;-75
2023/08/25 11:14:03;;;;;;;;;;;30.70;74.20;;;;;;5081158;28;19908;-73
2023/08/25 11:16:28;;;;;;;;;;;31.20;74.20;;;;;;5070922;28;20015;-74
2023/08/25 11:18:54;;;;;;;;;;;31.40;74.30;;;;;;5070564;28;19943;-73
2023/08/25 11:21:24;;;;;;;;;;;32.00;74.30;;;;;;5087966;28;19916;-74
2023/08/25 11:23:49;;;;;;;;;;;31.70;73.60;;;;;;5089875;28;19999;-73
2023/08/25 11:26:19;;;;;;;;;;;32.00;74.30;;;;;;5088236;28;20364;-74
2023/08/25 11:28:51;;;;;;;;;;;31.80;73.50;;;;;;5061234;28;19916;-73
2023/08/25 11:31:19;;;;;;;;;;;31.80;74.10;;;;;;5068464;28;19908;-74
2023/08/25 11:33:45;;;;;;;;;;;32.10;74.60;;;;;;5068640;28;19948;-75
2023/08/25 11:36:15;;;;;;;;;;;32.60;74.80;;;;;;5060481;28;20364;-70
2023/08/25 11:38:41;;;;;;;;;;;33.00;75.00;;;;;;5091966;28;20363;-73
2023/08/25 11:41:07;;;;;;;;;;;33.40;74.70;;;;;;5088717;28;19961;-74
2023/08/25 11:43:32;;;;;;;;;;;33.10;74.10;;;;;;5088906;28;19908;-74
2023/08/25 11:45:58;;;;;;;;;;;32.80;74.50;;;;;;5088657;28;19916;-73
2023/08/25 11:48:24;;;;;;;;;;;33.10;75.30;;;;;;5070746;28;20295;-72
2023/08/25 11:50:50;;;;;;;;;;;33.20;74.90;;;;;;5070441;28;19908;-77
2023/08/25 11:53:16;;;;;;;;;;;33.30;74.90;;;;;;5089062;28;20319;-74
2023/08/25 11:55:42;;;;;;;;;;;33.00;74.40;;;;;;5088506;28;19957;-75
2023/08/25 11:58:08;;;;;;;;;;;32.60;74.60;;;;;;5088761;28;20212;-76
2023/08/25 12:00:38;;;;;;;;;;;32.50;74.70;;;;;;5070452;28;19916;-73
2023/08/25 12:03:04;;;;;;;;;;;32.00;74.20;;;;;;5088598;28;19957;-74
2023/08/25 12:05:33;;;;;;;;;;;31.20;73.60;;;;;;5069901;28;19922;-75
2023/08/25 12:08:00;;;;;;;;;;;30.30;73.50;;;;;;5070101;28;20282;-76
2023/08/25 12:10:25;;;;;;;;;;;29.40;74.00;;;;;;5089096;28;19912;-75
2023/08/25 12:12:52;;;;;;;;;;;29.30;75.20;;;;;;5088715;28;19916;-76
2023/08/25 12:15:18;;;;;;;;;;;29.70;75.90;;;;;;5088813;28;19954;-75
2023/08/25 12:17:46;;;;;;;;;;;30.30;75.50;;;;;;5087912;28;19916;-74
2023/08/25 12:20:13;;;;;;;;;;;30.50;74.80;;;;;;5087589;28;19920;-75
2023/08/25 12:22:54;;;;;;;;;;;30.40;74.50;;;;;;5082153;28;20322;-74
2023/08/25 12:25:20;;;;;;;;;;;30.30;74.30;;;;;;5074308;28;19916;-75
2023/08/25 12:27:47;;;;;;;;;;;30.70;75.40;;;;;;5077555;28;19930;-74
2023/08/25 12:30:13;;;;;;;;;;;31.50;75.80;;;;;;5082736;28;20364;-74
2023/08/25 12:32:39;;;;;;;;;;;32.20;75.40;;;;;;5071679;28;20003;-77
2023/08/25 12:35:04;;;;;;;;;;;32.60;74.80;;;;;;5071798;28;19919;-77
2023/08/25 12:37:30;;;;;;;;;;;32.80;74.50;;;;;;5072124;28;20347;-75
2023/08/25 12:39:56;;;;;;;;;;;32.70;73.90;;;;;;5071204;28;19944;-74
2023/08/25 12:42:21;;;;;;;;;;;32.10;73.30;;;;;;5053808;28;20355;-75
2023/08/25 12:44:47;;;;;;;;;;;31.20;73.30;;;;;;5053159;28;19909;-74
2023/08/25 12:47:12;;;;;;;;;;;30.50;73.50;;;;;;5071253;28;19939;-75
2023/08/25 12:49:38;;;;;;;;;;;29.90;73.70;;;;;;5052931;28;20049;-73
2023/08/25 12:52:04;;;;;;;;;;;29.40;73.80;;;;;;5071008;28;20391;-72
2023/08/25 12:54:29;;;;;;;;;;;28.90;73.70;;;;;;5071205;28;19955;-73
2023/08/25 12:56:55;;;;;;;;;;;28.40;73.60;;;;;;5071240;28;20385;-72
2023/08/25 12:59:20;;;;;;;;;;;28.20;74.20;;;;;;5070783;28;19913;-72
2023/08/25 13:01:46;;;;;;;;;;;28.50;75.50;;;;;;5070561;28;19973;-71
2023/08/25 13:04:12;;;;;;;;;;;29.50;76.20;;;;;;5071576;28;19916;-74
2023/08/25 13:06:37;;;;;;;;;;;30.20;75.50;;;;;;5071923;28;19924;-72
2023/08/25 13:09:04;;;;;;;;;;;30.30;74.40;;;;;;5071994;28;19947;-73
2023/08/25 13:11:30;;;;;;;;;;;30.10;74.40;;;;;;5071772;28;19952;-73
2023/08/25 13:13:56;;;;;;;;;;;30.00;74.30;;;;;;5070745;28;19998;-74
2023/08/25 13:16:21;;;;;;;;;;;29.90;73.90;;;;;;5065721;28;19916;-75
2023/08/25 13:18:47;;;;;;;;;;;29.50;74.40;;;;;;5080066;28;19912;-75
2023/08/25 13:21:12;;;;;;;;;;;29.00;74.10;;;;;;5090585;28;19927;-72
2023/08/25 13:23:38;;;;;;;;;;;28.10;74.50;;;;;;5090617;28;19969;-73
2023/08/25 13:26:03;;;;;;;;;;;27.50;75.20;;;;;;5083643;28;20258;-74
2023/08/25 13:28:29;;;;;;;;;;;27.00;75.40;;;;;;5070905;28;19913;-73
2023/08/25 13:30:55;;;;;;;;;;;26.80;75.40;;;;;;5058135;28;19926;-71
2023/08/25 13:33:21;;;;;;;;;;;26.50;75.30;;;;;;5078027;28;19927;-71
2023/08/25 13:35:48;;;;;;;;;;;26.20;75.40;;;;;;5080765;28;20330;-73
2023/08/25 13:38:14;;;;;;;;;;;25.80;75.10;;;;;;5056146;28;19920;-74
2023/08/25 13:40:39;;;;;;;;;;;25.40;75.10;;;;;;5058657;28;19920;-73
2023/08/25 13:43:05;;;;;;;;;;;24.90;75.20;;;;;;5096379;28;19919;-73
2023/08/25 13:45:31;;;;;;;;;;;24.50;76.00;;;;;;5042341;28;19923;-73
2023/08/25 13:47:56;;;;;;;;;;;24.40;75.90;;;;;;5085848;28;19912;-73
2023/08/25 13:50:22;;;;;;;;;;;24.60;76.10;;;;;;5065840;28;19916;-68
2023/08/25 13:52:47;;;;;;;;;;;24.90;75.60;;;;;;5078399;28;19965;-73
2023/08/25 13:55:13;;;;;;;;;;;24.90;75.20;;;;;;5061118;28;19926;-75
2023/08/25 13:57:40;;;;;;;;;;;24.80;74.80;;;;;;5079627;28;20000;-74
2023/08/25 14:00:06;;;;;;;;;;;24.60;75.10;;;;;;5045616;28;19924;-74
2023/08/25 14:02:32;;;;;;;;;;;24.60;74.90;;;;;;5081636;28;19929;-74
2023/08/25 14:04:57;;;;;;;;;;;24.80;74.80;;;;;;5072209;28;20379;-74
2023/08/25 14:07:23;;;;;;;;;;;25.20;74.40;;;;;;5070708;28;19952;-74
2023/08/25 14:09:49;;;;;;;;;;;25.50;73.80;;;;;;5052250;28;20253;-73
2023/08/25 14:12:16;;;;;;;;;;;25.80;73.40;;;;;;5052221;28;19912;-74